KGON/GON METAR and TAF weather

Enter ICAO airport designator
Station Type Date Time Source
KGON METAR 2020/07/11 23:56 UTC NOAA

KGON 112356Z 20003KT 5SM BR OVC004 23/22 A2970 RMK AO2 SLP056 T02280217 10250 20222 55001


Station Type Date Time Source
KGON Decoded METAR 2020/07/11 23:56 UTC NOAA

GROTON/NEW LONDON AIRPORT , CT, United States (KGON) 41-20N 72-03W 3M
Jul 11, 2020 - 07:56 PM EDT / 2020.07.11 2356 UTC
Wind: from the SSW (200 degrees) at 3 MPH (3 KT):0
Visibility: 5 mile(s):0
Sky conditions: overcast
Weather: mist
Temperature: 73.0 F (22.8 C)
Dew Point: 71.1 F (21.7 C)
Relative Humidity: 93%
Pressure (altimeter): 29.7 in. Hg (1005 hPa)
Pressure tendency: 0.00 inches (0.1 hPa) lower than three hours ago
ob: KGON 112356Z 20003KT 5SM BR OVC004 23/22 A2970 RMK AO2 SLP056 T02280217 10250 20222 55001
cycle: 0

Station Type Date Time Source
KGON TAF 2020/07/12 00:03 UTC NOAA

TAF KGON 120001Z 1200/1224 17010KT 4SM BR OVC004
FM120200 18010KT P6SM VCSH BKN005 BKN015
FM120500 23009KT P6SM BKN010

Example: see airport list